AREA preflight bulletin
Updated "live" 22 Jul 2017, 08:50

back to the map




METAR og TAF


NARSARSUAQ
  AKTUEL BGBW 220750Z 22003KT 9999 BKN006 07/05 Q1009 RMK 7ST =
  TAF 9 timer BGBW 220830Z 2209/2218 22005KT 9999 BKN006 TEMPO 2209/2212 SCT006 BKN010 BECMG 2212/2214 FEW020=

QAQORTOQ
  AKTUEL BGJH 220850Z AUTO 18001KT //// ///////// 04/04 Q1009=

PAAMIUT
  AKTUEL BGPT 220850Z AUTO 17007KT 120V220 9999NDV OVC130/// 06/03 Q1008=
  TAF 9 timer BGPT 211810Z 2118/2119 CNL=

NARSAQ
  AKTUEL BGNS 220850Z AUTO 04003KT //// ///////// 04/04 Q1008=

NANORTALIK
  AKTUEL BGNN 220820Z AUTO 06001KT //// ///////// 01/01 Q1008=

NUUK
  AKTUEL BGGH 220850Z AUTO 00000KT 9999NDV SCT190/// 09/04 Q1006=
  TAF 9 timer BGGH 212315Z 2200/2205 VRB05KT 9999 FEW200=

KANGERLUSSUAQ
  AKTUEL BGSF 220820Z AUTO 07007KT 9999NDV NCD 06/01 Q1008=
  TAF 24 timer BGSF 220451Z 2206/2224 06008KT 9999 FEW200=


SIGMETS:

Ingen SIGMET fundet:

NOTAM/SNOWTAM for operationel use has to be confirmed with the
nearest AIS Briefing Office prior to a flight.

ICAO
BGBW (NARSARSUAQ)

FIR
BGGL

Notam_id:
BGA0258/17

valid from:
1707200000

E) TRIGGER NOTAM - PERM AIP AIRAC AMDT 07/17 WEF 20 JUL 2017. CHANGES TO HANDLING SERVICE AND FACILITIES (OIL TYPES). NEW PARAGRAPH 4, UNDER CHAPTER 23 (ADDITIONAL INFORMATION), CONCERNING RULES FOR AIRCRAFT PLANNING FOR BGBW AS DESTINATION, ALTERNATE OR ENROUTE ALTERNATE OUTSIDE OPERATING HOURS MON-SAT 1100-2000Z (1000-1900Z

valid to:
1708022359




ICAO
BGBW (NARSARSUAQ)

FIR
BGGL

Notam_id:
BGA0110/17

valid from:
1704051400

E) TEL NO. +299 665215 DISCONTINUED. NEW TEL.NO. +299 382855

valid to:
PERM




ICAO
BGBW (NARSARSUAQ)

FIR
BGGL

Notam_id:
BGA0017/17

valid from:
1701180703

E) AIRCRAFT PLANNING FOR BGBW AS DESTINATION, ALTERNATE OR AS ENROUTE ALTERNATE OUTSIDE OPERATING HOURS MON-SAT 1100-2000Z (1000-1900Z) CONTACT AERODROME BGBW(AT)MIT.GL AND SUBMIT FPL VIA AFTN TO BGBWZTZX FOR METAR AND TAF AND ENSURE CONFIRMATION PRIOR TO DEPARTURE IN ACCORDANCE WITH ICAO ANNEX 6 PART 2 NAT-OPERATIONS.

valid to:
PERM


Replacing:
BGA0005/17

ICAO
BGJH (QAQORTOQ)

FIR
BGGL

Notam_id:
BGC0044/16

valid from:
1607291547

E) MAXIMUM HELICOPTERLENGTH TO OPERATE AT QAQORTOQ, MAINROTOR INCLUDED, NOT TO EXCEED 20 METERS. HELIPORT ONLY CERTIFIED TO OPERATE PAYING PASSENGERTRANSPORT FOR HELICOPTERS WITH MTOW OF 10500 LBS AT TAKEOFF AND WHICH IS CERTIFIED TO CARRY UP TO MAXIMUM 19 PASSENGER. LANDING MUST ONLY TAKE PLACE WHEN WIND VELOCITY DOES NOT EXCEED 50KT(GUST INCLUDED).

valid to:
PERM




ICAO
BGJH (QAQORTOQ)

FIR
BGGL

Notam_id:
BGC0029/17

valid from:
1707201828

E) WEATHER INFORMATION NOT AVAILABLE DUE TO LACK OFF STAFF.

valid to:
1708211900EST


Replacing:
BGC0019/17

ICAO
BGPT (PAAMIUT)

FIR
BGGL

Notam_id:
BGB0563/17

valid from:
1707211320

E) OBST LIGHTS WDI THR35 OUT OF SERVICE

valid to:
1707281400EST


Replacing:
BGB0550/17

ICAO
BGPT (PAAMIUT)

FIR
BGGL

Notam_id:
BGB0522/17

valid from:
1706291617

E) FAX 00299681708 OUT OF SERVICE. INSTEAD USE E-MAIL: BGPT AT MIT.GL.

valid to:
1707281800EST


Replacing:
BGB0476/17

ICAO
BGPT (PAAMIUT)

FIR
BGGL

Notam_id:
BGB0472/17

valid from:
1706111400

E) OPERATIONAL HOURS AD: MON-FRI 1100Z-1800Z SAT/SUN/HOL CLSD

valid to:
1709051400




ICAO
BGNN (NANORTALIK)

FIR
BGGL

Notam_id:
BGC0028/17

valid from:
1707070940

E) OPMET SAVS CAN NOT SEND WEATHER REPORTS.

valid to:
1707311200EST


Replacing:
BGC0027/17

ICAO
BGGL (SONDRESTROM FIR)

FIR
BGGL

Notam_id:
BGA0293/17

valid from:
1708170000

E) TRIGGER NOTAM - PERM AIP AIRAC AMDT 08/17 WEF 17 AUG 2017. GEN 2.4: BGZZ/AMHS WITHDRAWN. ENR 2.1 AND ENR 6.2: LATERAL CHANGES TO SOENDRESTROEM SECTOR NORTH AND SONDRESTROEM SECTOR SOUTH.

valid to:
1708302359




ICAO
BGGL (SONDRESTROM FIR)

FIR
BGGL

Notam_id:
BGB0536/17

valid from:
1707011826

E) TUNULLIARFIK MAST 922FT OBST LIGHT ON TRANSMISSIONLINE OUT OF SERVICE. PSN 605254N0455957W.

valid to:
1709151600




ICAO
BGGL (SONDRESTROM FIR)

FIR
BGGL

Notam_id:
BGA0300/17

valid from:
1707010512

E) CHECKLIST YEAR=2015 0175 YEAR=2016 NIL YEAR=2017 0017 0110 0220 0239 0240 0254 0255 0257 0258 0259 0269 0281 0293 0294 0298 LATEST PUBLICATIONS AIP AIRAC AMDT IFR 008/2017 EFFECTIVE DATE 17 AUG 17 AIP AMDT IFR 006/2017 EFFECTIVE DATE 06 JUL 17 AIP SUP IFR 002/2017 EFFECTIVE DATE 23 MAY 17 AIC IFR A001/2017 EFFECTIVE DATE 21 MAR 17

valid to:
1708010512EST


Replacing:
BGA0260/17

ICAO
BGGL (SONDRESTROM FIR)

FIR
BGGL

Notam_id:
BGB0530/17

valid from:
1707010512

E) CHECKLIST YEAR=2016 0593 0666 YEAR=2017 0061 0125 0223 0264 0265 0369 0371 0406 0416 0424 0440 0441 0450 0472 0507 0519 0520 0522 0523 0524 0528 0529 LATEST PUBLICATIONS AIP AIRAC AMDT IFR 008/2017 EFFECTIVE DATE 17 AUG 17 AIP AMDT IFR 006/2017 EFFECTIVE DATE 06 JUL 17 AIP SUP IFR 002/2017 EFFECTIVE DATE 23 MAY 17 AIC IFR A001/2017 EFFECTIVE DATE 21 MAR 17

valid to:
1708010512EST


Replacing:
BGB0451/17

ICAO
BGGL (SONDRESTROM FIR)

FIR
BGGL

Notam_id:
BGC0026/17

valid from:
1707010513

E) CHECKLIST YEAR=2016 0044 YEAR=2017 0017 0019 0024 0025 LATEST PUBLICATIONS AIP AIRAC AMDT IFR 008/2017 EFFECTIVE DATE 17 AUG 17 AIP AMDT IFR 006/2017 EFFECTIVE DATE 06 JUL 17 AIP SUP IFR 002/2017 EFFECTIVE DATE 23 MAY 17 AIC IFR A001/2017 EFFECTIVE DATE 21 MAR 17

valid to:
1708010513EST


Replacing:
BGC0016/17

ICAO
BGGL (SONDRESTROM FIR)

FIR
BGGL

Notam_id:
BGA0257/17

valid from:
1707200000

E) TRIGGER NOTAM - PERM AIP AIRAC AMDT 07/17 WEF 20 JUL 2017. AAPPALUTTOQ (BGAU) ADDED. CHANGE TO TEL NR AT NARSARSUAQ. GEN 3.5 (CHAPTER 3): CHANGES IN METEOROLOGICAL OBSERVATIONS AND REPORTS AT BGSF, BGGH AND BGQQ

valid to:
1708022359




ICAO
BGGL (SONDRESTROM FIR)

FIR
BGGL

Notam_id:
BGB0535/17

valid from:
1707011825

E) KANGERLLUARSUK MAST 263FT OBST LIGHT ON TRANSMISSIONLINE OUT OF SERVICE. PSN 605130N0455730W.

valid to:
1709151600




ICAO
BGGH (NUUK)

FIR
BGGL

Notam_id:
BGB0450/17

valid from:
1705311916

E) BGGH AFIS FREQ 119.100 MHZ NO COVERAGE IN SECTOR BETWEEN 060 DEG MAG AND 210 DEG MAG BELOW FL100.

valid to:
1708312359


Replacing:
BGB0087/17

ICAO
BGSF (KANGERLUSSUAQ)

FIR
BGGL

Notam_id:
BGA0175/15

valid from:
1505010000

E) FOR AIRCRAFT PLANNING ON USING BGSF AS RALT/ALTN/DEST/ETOPS OUTSIDE NORMAL AIRPORT OPERATING HOURS, REQUEST MUST BE SENT VIA EMAIL TO PPR AT MIT.GL OR REQUESTED BY PHONE ON 00299524227. ALSO SUBMIT FPL VIA AFTN. ENSURE CONFIRMATION PRIOR TO DEPARTURE IN ACCORDANCE WITH ICAO ANNEX 6, PART 2 NAT-OPERATIONS.

valid to:
PERM




ICAO
BGSF (KANGERLUSSUAQ)

FIR
BGGL

Notam_id:
BGB0406/17

valid from:
1705160001

E) REDUCED LONGITUDINAL SEPARATION BASED ON GNSS IS NOW BEING IMPLEMENTED IN SONDRESTROM AIRSPACE. REF AIP: AIC A001/17 INTRODUCTION TO GNSS LONGITUDINAL SEPARATION IN BGSF.

valid to:
1708252359




ICAO
BGSF (KANGERLUSSUAQ)

FIR
BGGL

Notam_id:
BGA0294/17

valid from:
1708170000

E) TRIGGER NOTAM - PERM AIP AIRAC AMDT 08/17 WEF 17 AUG 2017. NEW TEXT CONCERNING AIRCRAFT PLANNING OUTSIDE NORMAL AIRPORT OPERATING HOURS. NEW REMARK CONCERNING SURFACE AT THE APRON AND TAXIWAYS.

valid to:
1708302359




ICAO
BGSF (KANGERLUSSUAQ)

FIR
BGGL

Notam_id:
BGA0255/17

valid from:
1705301305

E) THERE ARE AREAS WITH MINOR CRACKS AND UNEVEN SURFACE AT THE TWYS

valid to:
PERM




ICAO
BGSF (KANGERLUSSUAQ)

FIR
BGGL

Notam_id:
BGA0254/17

valid from:
1705301303

E) THERE ARE AREAS WITH MINOR CRACKS AND UNEVEN SURFACE AT THE APRON

valid to:
PERM





Copyright Naviair   2003-2016